Time;durP1;ratioP1;P1;durP2;ratioP2;P2;SDS_P1;SDS_P2;PMS_P1;PMS_P2;Temp;Humidity;BMP_temperature;BMP_pressure;BME280_temperature;BME280_humidity;BME280_pressure;Samples;Min_cycle;Max_cycle;Signal;HPM_P1;HPM_P2
2023/06/22 00:02:04;;;;;;;;;10.00;8.50;;;;;25.48;77.58;98906.13;6079497;28;96279;-59
2023/06/22 00:05:09;;;;;;;;;10.00;10.00;;;;;25.38;78.90;98915.50;6068946;28;96423;-59
2023/06/22 00:08:13;;;;;;;;;10.00;8.00;;;;;25.43;78.33;98912.59;6065807;28;96384;-59
2023/06/22 00:11:16;;;;;;;;;11.00;11.00;;;;;25.42;78.56;98937.75;6072645;28;97191;-59
2023/06/22 00:14:20;;;;;;;;;10.60;10.00;;;;;25.54;78.51;98949.03;6061409;28;96370;-59
2023/06/22 00:17:23;;;;;;;;;12.00;11.20;;;;;25.64;78.21;98954.28;6067842;28;96360;-59
2023/06/22 00:20:28;;;;;;;;;12.75;11.75;;;;;25.73;77.43;98955.13;6069429;28;96509;-58
2023/06/22 00:23:34;;;;;;;;;12.00;12.00;;;;;25.77;77.94;98955.31;6068855;28;97619;-59
2023/06/22 00:26:37;;;;;;;;;13.40;12.40;;;;;25.83;77.28;98956.78;6069564;28;96552;-58
2023/06/22 00:29:45;;;;;;;;;13.50;12.00;;;;;25.85;77.53;98946.25;6051945;28;96576;-59
2023/06/22 00:32:48;;;;;;;;;13.80;11.80;;;;;25.87;77.13;98944.78;6050286;28;97157;-59
2023/06/22 00:35:53;;;;;;;;;11.80;10.60;;;;;25.87;77.30;98942.03;6067655;28;97499;-59
2023/06/22 00:38:57;;;;;;;;;14.00;12.00;;;;;25.85;77.50;98930.47;6050447;28;96939;-59
2023/06/22 00:42:00;;;;;;;;;11.00;11.00;;;;;25.83;77.93;98934.69;6050235;28;96563;-59
2023/06/22 00:45:07;;;;;;;;;14.00;12.00;;;;;25.83;78.62;98937.47;6049821;28;96460;-59
2023/06/22 00:48:10;;;;;;;;;13.40;12.40;;;;;25.66;79.69;98915.28;6069074;28;96818;-59
2023/06/22 00:51:17;;;;;;;;;12.00;10.00;;;;;25.66;81.59;98916.13;6068727;28;96866;-59
2023/06/22 00:54:24;;;;;;;;;12.50;11.50;;;;;25.48;83.33;98911.63;6060217;28;97548;-59
2023/06/22 00:57:29;;;;;;;;;12.60;11.60;;;;;25.34;84.13;98916.44;6051385;28;97086;-59
2023/06/22 01:00:33;;;;;;;;;12.60;12.00;;;;;25.28;84.58;98906.69;6051738;28;96285;-59
2023/06/22 01:03:37;;;;;;;;;13.80;12.00;;;;;25.22;84.22;98903.25;6068902;28;96343;-59
2023/06/22 01:06:52;;;;;;;;;12.00;11.00;;;;;25.11;85.19;98898.31;6068835;28;96503;-59
2023/06/22 01:10:04;;;;;;;;;13.60;13.00;;;;;25.08;85.65;98907.22;6051536;28;96419;-59
2023/06/22 01:13:14;;;;;;;;;13.00;11.40;;;;;25.08;85.72;98908.03;6051302;28;96569;-59
2023/06/22 01:16:24;;;;;;;;;13.00;12.00;;;;;25.06;86.13;98903.97;6068431;28;97119;-59
2023/06/22 01:19:41;;;;;;;;;13.50;12.50;;;;;24.94;87.07;98905.38;6068629;28;96346;-59
2023/06/22 01:23:06;;;;;;;;;14.40;12.40;;;;;24.88;87.16;98906.63;6067973;28;96020;-59
2023/06/22 01:26:19;;;;;;;;;13.00;12.00;;;;;24.77;87.51;98898.91;6035127;28;97445;-59
2023/06/22 01:29:26;;;;;;;;;11.00;10.00;;;;;24.68;87.92;98898.81;6051398;28;96306;-58
2023/06/22 01:32:33;;;;;;;;;14.40;14.00;;;;;24.66;88.43;98909.38;6063899;28;96571;-59
2023/06/22 01:35:38;;;;;;;;;12.00;12.00;;;;;24.66;88.17;98901.09;6050363;28;98405;-59
2023/06/22 01:38:42;;;;;;;;;11.20;11.00;;;;;24.70;87.61;98904.84;6068197;28;96946;-58
2023/06/22 01:41:49;;;;;;;;;12.00;11.00;;;;;24.70;87.81;98910.38;6050756;28;96276;-59
2023/06/22 01:44:54;;;;;;;;;13.00;13.00;;;;;24.72;87.52;98919.16;6068199;28;96347;-59
2023/06/22 01:47:58;;;;;;;;;15.00;13.00;;;;;24.76;87.68;98914.63;6067878;28;96296;-58
2023/06/22 01:51:03;;;;;;;;;12.00;11.00;;;;;24.80;87.46;98925.84;6051376;28;96694;-59
2023/06/22 01:54:08;;;;;;;;;12.00;12.00;;;;;24.83;87.60;98914.16;6067827;28;96355;-59
2023/06/22 01:57:12;;;;;;;;;10.00;9.80;;;;;24.84;87.10;98921.31;6067513;28;96851;-59
2023/06/22 02:00:23;;;;;;;;;11.00;10.00;;;;;24.83;86.67;98917.75;6050779;28;96390;-59
2023/06/22 02:03:32;;;;;;;;;10.00;9.00;;;;;24.80;85.93;98920.31;6068271;28;96590;-59
2023/06/22 02:06:39;;;;;;;;;12.00;11.00;;;;;24.78;85.56;98915.13;6067868;28;96549;-59
2023/06/22 02:09:48;;;;;;;;;13.40;12.80;;;;;24.70;85.99;98921.41;6049451;28;96558;-59
2023/06/22 02:12:53;;;;;;;;;12.00;11.00;;;;;24.65;86.60;98917.94;6067352;28;96281;-58
2023/06/22 02:15:58;;;;;;;;;14.80;13.00;;;;;24.64;86.30;98911.63;6048990;28;96752;-59
2023/06/22 02:19:03;;;;;;;;;12.00;11.00;;;;;24.55;86.93;98911.56;6067349;28;96566;-59
2023/06/22 02:22:09;;;;;;;;;12.20;10.80;;;;;24.50;86.91;98911.69;6034635;28;98544;-58
2023/06/22 02:25:13;;;;;;;;;11.00;10.00;;;;;24.46;86.25;98918.13;6049586;28;96338;-59
2023/06/22 02:28:16;;;;;;;;;11.40;9.00;;;;;24.42;86.19;98917.13;6067116;28;96315;-58
2023/06/22 02:31:22;;;;;;;;;13.00;11.40;;;;;24.44;85.75;98920.38;6047609;28;97563;-59
2023/06/22 02:34:25;;;;;;;;;9.40;8.00;;;;;24.43;85.36;98919.56;6048891;28;96672;-59
2023/06/22 02:37:29;;;;;;;;;11.00;10.60;;;;;24.43;85.69;98938.88;6047770;28;96395;-59
2023/06/22 02:40:32;;;;;;;;;12.00;11.00;;;;;24.47;85.52;98939.06;6065092;28;96509;-59
2023/06/22 02:43:36;;;;;;;;;10.00;9.00;;;;;24.52;84.96;98934.25;6065071;28;96609;-59
2023/06/22 02:46:41;;;;;;;;;9.00;8.80;;;;;24.52;85.00;98934.25;6066565;28;96541;-58
2023/06/22 02:49:45;;;;;;;;;11.00;10.00;;;;;24.55;84.69;98939.13;6049655;28;96871;-58
2023/06/22 02:52:49;;;;;;;;;12.00;11.00;;;;;24.63;84.88;98939.50;6049905;28;97423;-58
2023/06/22 02:55:53;;;;;;;;;11.40;11.00;;;;;24.66;85.40;98942.44;6049344;28;96743;-58
2023/06/22 02:59:01;;;;;;;;;12.25;10.75;;;;;24.68;85.03;98950.41;6049566;28;96309;-58
2023/06/22 03:02:11;;;;;;;;;12.25;11.00;;;;;24.65;85.06;98951.03;6049944;28;96464;-59
2023/06/22 03:05:17;;;;;;;;;12.00;10.60;;;;;24.65;84.46;98956.53;6049611;28;96365;-58
2023/06/22 03:08:22;;;;;;;;;11.00;10.00;;;;;24.58;84.53;98955.03;6033824;28;96659;-58
2023/06/22 03:11:26;;;;;;;;;13.60;12.00;;;;;24.54;84.80;98955.97;6049026;28;96524;-59
2023/06/22 03:14:29;;;;;;;;;10.00;9.60;;;;;24.51;84.06;98949.13;6065973;28;96613;-58
2023/06/22 03:17:34;;;;;;;;;11.40;9.60;;;;;24.53;84.61;98957.91;6032516;28;96638;-59
2023/06/22 03:20:38;;;;;;;;;12.00;11.00;;;;;24.45;85.77;98960.59;6032582;28;98332;-59
2023/06/22 03:23:44;;;;;;;;;11.00;10.75;;;;;24.31;86.17;98949.59;6048369;28;96584;-58
2023/06/22 03:26:48;;;;;;;;;13.00;11.00;;;;;24.38;86.10;98968.47;6047420;28;96870;-59
2023/06/22 03:29:51;;;;;;;;;11.00;10.50;;;;;24.37;86.09;98972.34;6047658;28;98485;-59
2023/06/22 03:32:56;;;;;;;;;10.00;9.00;;;;;24.32;85.56;98964.19;6047296;28;96392;-59
2023/06/22 03:36:02;;;;;;;;;11.00;10.00;;;;;24.39;85.22;98976.41;6048155;28;96768;-59
2023/06/22 03:39:05;;;;;;;;;11.00;11.00;;;;;24.19;85.66;98954.81;6050825;28;96878;-59
2023/06/22 03:42:09;;;;;;;;;11.25;10.00;;;;;24.30;86.03;98977.47;6038376;28;97086;-59
2023/06/22 03:45:12;;;;;;;;;13.00;11.00;;;;;24.29;85.91;98982.16;6068337;28;96592;-59
2023/06/22 03:48:18;;;;;;;;;13.20;12.00;;;;;24.34;85.60;98978.47;6067476;28;96870;-58
2023/06/22 03:51:21;;;;;;;;;12.00;12.00;;;;;24.31;85.45;98984.59;6050109;28;96877;-59
2023/06/22 03:54:25;;;;;;;;;14.00;12.00;;;;;24.24;85.93;98981.47;6068715;28;96319;-58
2023/06/22 03:57:28;;;;;;;;;14.75;13.00;;;;;24.24;85.76;98984.22;6069278;28;96294;-59
2023/06/22 04:00:31;;;;;;;;;13.20;11.20;;;;;24.15;86.23;99003.38;6043541;28;96939;-59
2023/06/22 04:03:36;;;;;;;;;13.00;12.00;;;;;24.13;86.05;99002.88;6054540;28;96321;-58
2023/06/22 04:06:39;;;;;;;;;11.25;10.75;;;;;24.09;86.48;99001.88;6056450;28;98142;-58
2023/06/22 04:09:43;;;;;;;;;13.60;12.00;;;;;24.15;86.27;99001.44;6068540;28;96888;-59
2023/06/22 04:12:48;;;;;;;;;12.00;10.40;;;;;24.14;86.33;98996.25;6052262;28;96328;-58
2023/06/22 04:15:52;;;;;;;;;15.40;13.40;;;;;24.19;86.89;99000.88;6065421;28;97169;-58
2023/06/22 04:18:56;;;;;;;;;14.00;13.00;;;;;24.31;86.37;99001.13;6068695;28;96412;-59
2023/06/22 04:22:00;;;;;;;;;12.00;11.60;;;;;24.27;86.26;99006.47;6052304;28;96475;-58
2023/06/22 04:25:03;;;;;;;;;12.60;12.00;;;;;24.34;86.25;99006.03;6068660;28;96322;-59
2023/06/22 04:28:12;;;;;;;;;13.40;11.40;;;;;24.39;86.28;99006.72;6066861;28;97884;-58
2023/06/22 04:31:15;;;;;;;;;11.00;11.00;;;;;24.49;86.36;99014.78;6067366;28;97589;-59
2023/06/22 04:34:20;;;;;;;;;13.00;12.00;;;;;24.62;85.71;99015.88;6051939;28;97182;-59
2023/06/22 04:37:24;;;;;;;;;16.00;12.00;;;;;24.76;85.26;99013.06;6067200;28;96487;-59
2023/06/22 04:40:27;;;;;;;;;11.00;10.50;;;;;24.83;84.84;99019.78;6072283;28;96389;-59
2023/06/22 04:43:31;;;;;;;;;12.00;11.00;;;;;24.78;84.79;99003.34;6067435;28;96360;-59
2023/06/22 04:46:38;;;;;;;;;10.00;8.80;;;;;24.91;84.11;99018.25;6067283;28;96855;-59
2023/06/22 04:49:43;;;;;;;;;11.00;10.25;;;;;25.18;83.54;99023.66;6067181;28;96615;-59
2023/06/22 04:52:46;;;;;;;;;11.00;11.00;;;;;25.17;82.92;99035.81;6046385;28;96552;-58
2023/06/22 04:55:49;;;;;;;;;10.00;10.00;;;;;25.45;82.13;99037.31;6051144;28;99047;-59
2023/06/22 04:58:56;;;;;;;;;12.00;11.00;;;;;25.55;81.59;99030.75;6069174;28;96363;-58
2023/06/22 05:02:02;;;;;;;;;10.00;9.00;;;;;25.75;80.80;99030.22;6072078;28;96560;-58
2023/06/22 05:05:08;;;;;;;;;13.40;10.60;;;;;25.71;80.01;99023.66;6068751;28;96861;-59
2023/06/22 05:08:12;;;;;;;;;10.80;9.80;;;;;25.95;79.73;99022.50;6050519;28;97221;-59
2023/06/22 05:11:15;;;;;;;;;11.00;11.00;;;;;25.94;78.66;99034.66;6064313;28;96451;-58
2023/06/22 05:14:19;;;;;;;;;11.00;10.00;;;;;26.08;78.33;99035.38;6067234;28;96417;-59
2023/06/22 05:17:23;;;;;;;;;13.00;11.00;;;;;26.14;78.51;99034.09;6066695;28;96606;-58
2023/06/22 05:20:28;;;;;;;;;13.60;11.00;;;;;26.25;77.33;99032.69;6066095;28;97336;-59
2023/06/22 05:23:31;;;;;;;;;10.00;9.50;;;;;26.34;75.85;99025.22;6051097;28;96316;-59
2023/06/22 05:26:35;;;;;;;;;11.00;10.60;;;;;26.57;75.46;99045.28;6069032;28;96698;-59
2023/06/22 05:29:39;;;;;;;;;10.75;9.25;;;;;26.65;74.23;99039.75;6068327;28;96220;-58
2023/06/22 05:32:44;;;;;;;;;12.00;10.75;;;;;26.83;74.08;99045.31;6051398;28;98478;-59
2023/06/22 05:35:49;;;;;;;;;11.00;10.00;;;;;26.89;73.55;99036.53;6049982;28;98351;-59
2023/06/22 05:38:53;;;;;;;;;10.00;10.00;;;;;26.99;72.92;99038.16;6068540;28;96477;-59
2023/06/22 05:41:56;;;;;;;;;10.60;9.60;;;;;27.08;73.01;99036.22;6067129;28;96934;-59
2023/06/22 05:45:00;;;;;;;;;10.00;8.40;;;;;27.17;72.32;99051.66;6073822;28;96334;-59
2023/06/22 05:48:04;;;;;;;;;9.20;9.20;;;;;27.30;71.93;99049.06;6067886;28;97092;-58
2023/06/22 05:51:09;;;;;;;;;9.75;9.00;;;;;27.30;71.73;99055.41;6068490;28;96312;-59
2023/06/22 05:54:15;;;;;;;;;11.00;11.00;;;;;27.31;70.97;99054.28;6067786;28;97032;-59
2023/06/22 05:57:18;;;;;;;;;12.40;12.00;;;;;27.46;71.60;99056.53;6067378;28;96180;-59
2023/06/22 06:00:23;;;;;;;;;8.80;8.00;;;;;27.62;70.84;99058.78;6056330;28;96327;-59
2023/06/22 06:03:28;;;;;;;;;11.00;10.00;;;;;27.79;70.11;99059.59;6060545;28;96517;-59
2023/06/22 06:06:36;;;;;;;;;10.40;10.00;;;;;27.86;69.75;99065.41;6067676;28;96699;-59
2023/06/22 06:09:40;;;;;;;;;10.00;9.00;;;;;28.05;69.57;99073.34;6050010;28;96686;-59
2023/06/22 06:12:44;;;;;;;;;10.00;9.00;;;;;28.29;67.93;99081.09;6049854;28;97185;-59
2023/06/22 06:15:47;;;;;;;;;9.60;9.60;;;;;28.62;66.87;99081.22;6066210;28;96422;-60
2023/06/22 06:18:51;;;;;;;;;11.75;11.00;;;;;28.85;65.59;99080.63;6067444;28;96310;-59
2023/06/22 06:21:55;;;;;;;;;12.20;11.00;;;;;29.01;63.20;99077.25;6066405;28;96614;-59
2023/06/22 06:24:59;;;;;;;;;14.50;13.00;;;;;29.15;63.55;99086.09;6039505;28;98414;-59
2023/06/22 06:28:02;;;;;;;;;11.60;9.20;;;;;29.28;63.61;99082.22;6041256;28;97198;-60
2023/06/22 06:31:07;;;;;;;;;15.00;13.00;;;;;29.36;61.58;99083.34;6041650;28;97210;-59
2023/06/22 06:34:10;;;;;;;;;12.75;12.00;;;;;29.61;62.56;99087.84;6043817;28;96342;-59
2023/06/22 06:37:15;;;;;;;;;11.75;11.00;;;;;29.87;61.53;99098.66;6042096;28;96837;-60
2023/06/22 06:40:19;;;;;;;;;14.40;12.40;;;;;29.95;60.01;99097.81;6041567;28;96386;-59
2023/06/22 06:43:24;;;;;;;;;13.00;12.00;;;;;30.18;60.24;99099.00;6038896;28;96793;-59
2023/06/22 06:46:28;;;;;;;;;16.20;14.60;;;;;30.43;59.43;99092.28;6039651;28;96418;-60
2023/06/22 06:49:31;;;;;;;;;15.60;14.00;;;;;30.62;58.35;99083.38;6041257;28;97008;-59
2023/06/22 06:52:36;;;;;;;;;12.20;11.20;;;;;30.78;57.43;99084.28;6041870;28;96593;-59
2023/06/22 06:55:41;;;;;;;;;14.60;14.00;;;;;30.96;58.05;99085.63;6042360;28;96959;-59
2023/06/22 06:58:45;;;;;;;;;11.00;11.00;;;;;31.21;56.00;99088.38;6043687;28;96286;-59
2023/06/22 07:01:48;;;;;;;;;18.00;15.00;;;;;31.17;55.09;99093.84;6043527;28;98319;-60
2023/06/22 07:04:52;;;;;;;;;18.50;17.00;;;;;31.17;55.55;99095.81;6041867;28;97118;-59
2023/06/22 07:07:57;;;;;;;;;15.00;14.40;;;;;31.20;55.52;99087.56;6043152;28;96529;-59
2023/06/22 07:11:00;;;;;;;;;15.40;14.40;;;;;31.27;55.02;99078.63;6026454;28;96631;-59
2023/06/22 07:14:04;;;;;;;;;14.00;12.00;;;;;31.42;55.32;99077.06;6046966;28;96208;-59
2023/06/22 07:17:07;;;;;;;;;16.00;15.00;;;;;31.66;54.50;99088.09;6045941;28;96400;-60
2023/06/22 07:20:12;;;;;;;;;18.00;16.00;;;;;31.79;52.97;99076.53;6047190;28;96286;-60
2023/06/22 07:23:18;;;;;;;;;19.60;17.60;;;;;32.00;53.50;99086.63;6052673;28;96590;-59
2023/06/22 07:26:21;;;;;;;;;20.00;18.00;;;;;32.22;53.27;99072.88;6069871;28;96361;-59
2023/06/22 07:29:24;;;;;;;;;20.00;18.75;;;;;32.40;51.30;99072.53;6069046;28;96375;-59
2023/06/22 07:32:29;;;;;;;;;21.00;19.00;;;;;32.58;51.31;99074.56;6070465;28;96313;-59
2023/06/22 07:35:33;;;;;;;;;17.20;16.20;;;;;32.74;51.24;99070.97;6052544;28;98758;-59
2023/06/22 07:38:37;;;;;;;;;21.40;18.40;;;;;32.99;50.40;99070.31;6070358;28;96940;-59
2023/06/22 07:41:41;;;;;;;;;22.40;20.00;;;;;33.15;48.61;99064.69;6052520;28;97196;-59
2023/06/22 07:44:45;;;;;;;;;19.00;18.67;;;;;33.30;48.61;99065.81;6070481;28;96421;-59
2023/06/22 07:47:48;;;;;;;;;20.00;18.00;;;;;33.40;48.97;99062.44;6070045;28;96743;-59
2023/06/22 07:50:53;;;;;;;;;18.00;17.00;;;;;33.38;47.33;99054.41;6070424;28;96197;-59
2023/06/22 07:53:57;;;;;;;;;17.00;17.00;;;;;33.45;48.32;99062.94;6052710;28;96700;-59
2023/06/22 07:57:01;;;;;;;;;20.20;19.00;;;;;33.64;48.10;99069.69;6069573;28;97170;-60
2023/06/22 08:00:12;;;;;;;;;20.60;18.60;;;;;34.01;46.44;99076.41;6069835;28;96676;-59
2023/06/22 08:03:15;;;;;;;;;23.00;20.00;;;;;34.25;45.88;99075.25;6070190;28;96525;-59
2023/06/22 08:06:19;;;;;;;;;20.25;19.00;;;;;34.46;44.11;99071.97;6053240;28;96547;-59
2023/06/22 08:09:24;;;;;;;;;21.25;18.00;;;;;34.82;44.09;99081.75;6052440;28;96315;-60
2023/06/22 08:12:27;;;;;;;;;20.25;18.25;;;;;35.06;43.11;99075.69;6070018;28;96447;-59
2023/06/22 08:15:30;;;;;;;;;22.80;20.00;;;;;35.26;43.01;99085.59;6069751;28;97623;-59
2023/06/22 08:18:34;;;;;;;;;23.20;21.60;;;;;35.48;41.21;99083.88;6069403;28;97075;-59
2023/06/22 08:21:38;;;;;;;;;19.20;18.20;;;;;35.65;41.41;99069.22;6046889;28;97149;-59
2023/06/22 08:24:43;;;;;;;;;21.00;20.00;;;;;35.87;39.58;99076.69;6067860;28;96543;-60
2023/06/22 08:27:48;;;;;;;;;23.00;21.00;;;;;36.10;39.43;99084.94;6051676;28;97062;-59
2023/06/22 08:30:51;;;;;;;;;21.00;20.00;;;;;36.39;38.75;99086.03;6069157;28;96320;-59
2023/06/22 08:33:55;;;;;;;;;23.50;22.50;;;;;36.44;38.54;99080.06;6068580;28;96364;-60
2023/06/22 08:36:58;;;;;;;;;26.80;24.40;;;;;36.30;38.17;99089.19;6068960;28;96516;-60
2023/06/22 08:40:05;;;;;;;;;24.00;22.00;;;;;36.15;38.25;99086.63;6050549;28;96629;-59
2023/06/22 08:43:09;;;;;;;;;23.40;22.40;;;;;36.00;37.11;99080.03;6068611;28;97534;-59
2023/06/22 08:46:12;;;;;;;;;24.00;22.50;;;;;35.67;37.88;99077.31;6068721;28;96225;-59
2023/06/22 08:49:16;;;;;;;;;24.80;22.20;;;;;35.71;39.16;99087.38;6068099;28;96543;-60
2023/06/22 08:52:20;;;;;;;;;22.20;20.80;;;;;35.50;38.66;99085.09;6068475;28;96708;-60
2023/06/22 08:55:24;;;;;;;;;23.60;20.60;;;;;35.39;38.31;99095.34;6068973;28;96287;-60
2023/06/22 08:58:28;;;;;;;;;22.00;21.00;;;;;35.49;38.65;99096.69;6068896;28;96353;-60
2023/06/22 09:01:31;;;;;;;;;22.25;21.00;;;;;35.71;40.01;99101.38;6068852;28;96933;-59
2023/06/22 09:04:35;;;;;;;;;22.50;20.50;;;;;35.93;37.92;99094.81;6068850;28;96293;-60
2023/06/22 09:07:39;;;;;;;;;25.60;23.60;;;;;36.23;38.08;99097.53;6051075;28;96661;-59
2023/06/22 09:10:44;;;;;;;;;21.00;20.00;;;;;36.41;36.49;99092.03;6059484;28;96343;-59
2023/06/22 09:13:47;;;;;;;;;21.75;20.50;;;;;36.16;37.52;99080.63;6063886;28;96493;-59
2023/06/22 09:16:51;;;;;;;;;27.00;23.00;;;;;35.92;37.59;99086.78;6051104;28;98415;-60
2023/06/22 09:19:54;;;;;;;;;25.80;22.80;;;;;35.76;38.34;99097.44;6068438;28;96368;-60
2023/06/22 09:22:57;;;;;;;;;27.60;24.80;;;;;35.59;38.35;99087.59;6067469;28;96427;-60
2023/06/22 09:26:03;;;;;;;;;25.00;23.20;;;;;35.82;38.80;99090.28;6068524;28;96651;-59
2023/06/22 09:29:07;;;;;;;;;25.40;23.60;;;;;36.21;37.97;99085.06;6067526;28;96668;-59
2023/06/22 09:32:10;;;;;;;;;24.50;23.50;;;;;36.44;36.44;99092.09;6068404;28;96308;-60
2023/06/22 09:35:14;;;;;;;;;23.50;21.00;;;;;36.76;35.83;99089.53;6082632;28;96926;-60
2023/06/22 09:38:17;;;;;;;;;23.75;20.25;;;;;37.06;34.96;99078.06;6068161;28;96900;-60
2023/06/22 09:41:22;;;;;;;;;23.40;22.00;;;;;37.16;34.92;99082.16;6067136;28;96421;-60
2023/06/22 09:44:26;;;;;;;;;23.00;21.00;;;;;37.04;34.60;99086.09;6050820;28;96368;-59
2023/06/22 09:47:30;;;;;;;;;24.00;23.00;;;;;36.98;34.52;99089.66;6067529;28;96385;-60
2023/06/22 09:50:33;;;;;;;;;22.25;20.25;;;;;37.23;35.14;99085.00;6034597;28;96699;-60
2023/06/22 09:53:38;;;;;;;;;18.50;16.50;;;;;37.55;34.03;99085.97;6050139;28;96591;-60
2023/06/22 09:56:42;;;;;;;;;21.00;19.60;;;;;37.44;34.29;99073.03;6067562;28;96328;-60
2023/06/22 09:59:46;;;;;;;;;19.00;17.00;;;;;37.47;35.06;99077.88;6067355;28;96734;-60
2023/06/22 10:02:52;;;;;;;;;22.60;21.20;;;;;37.40;34.01;99077.84;6067614;28;96479;-60
2023/06/22 10:05:56;;;;;;;;;21.60;19.60;;;;;37.21;33.50;99071.34;6067426;28;96826;-60
2023/06/22 10:08:59;;;;;;;;;20.00;19.00;;;;;37.05;34.81;99078.44;6067471;28;96682;-60
2023/06/22 10:12:04;;;;;;;;;20.00;18.40;;;;;36.94;34.38;99074.81;6067190;28;96471;-60
2023/06/22 10:15:08;;;;;;;;;18.60;18.00;;;;;36.74;35.03;99071.47;6065313;28;97685;-60
2023/06/22 10:18:12;;;;;;;;;18.00;16.00;;;;;36.70;35.62;99067.84;6067417;28;96206;-59
2023/06/22 10:21:16;;;;;;;;;16.00;15.00;;;;;36.57;34.83;99069.31;6050033;28;98681;-60
2023/06/22 10:24:19;;;;;;;;;21.00;19.00;;;;;36.45;35.30;99068.44;6065356;28;96888;-60
2023/06/22 10:27:24;;;;;;;;;17.80;17.80;;;;;36.46;35.68;99064.41;6066875;28;96342;-61
2023/06/22 10:30:28;;;;;;;;;18.00;17.00;;;;;36.40;35.50;99070.81;6065782;28;96454;-60
2023/06/22 10:33:32;;;;;;;;;19.00;18.00;;;;;36.28;36.04;99071.09;6034551;28;96664;-60
2023/06/22 10:36:35;;;;;;;;;18.50;16.00;;;;;36.15;36.64;99073.41;6079088;28;96942;-60
2023/06/22 10:39:38;;;;;;;;;17.00;16.00;;;;;36.13;35.94;99063.69;6091007;28;96585;-60
2023/06/22 10:42:44;;;;;;;;;17.20;16.20;;;;;36.43;35.14;99061.59;6075071;28;96245;-59
2023/06/22 10:45:47;;;;;;;;;17.00;15.00;;;;;36.70;36.18;99053.78;6047037;28;97410;-60
2023/06/22 10:48:54;;;;;;;;;19.75;17.75;;;;;36.92;33.89;99049.06;6065483;28;96513;-60
2023/06/22 10:51:58;;;;;;;;;15.67;15.00;;;;;37.18;33.38;99048.84;6048124;28;96946;-59
2023/06/22 10:55:02;;;;;;;;;15.00;14.40;;;;;37.23;33.05;99040.03;6065911;28;96406;-60
2023/06/22 10:58:07;;;;;;;;;18.60;17.00;;;;;37.23;33.77;99032.41;6049857;28;96547;-60
2023/06/22 11:01:11;;;;;;;;;16.00;15.00;;;;;37.19;33.33;99016.72;6067089;28;96384;-60
2023/06/22 11:04:35;;;;;;;;;15.80;14.00;;;;;37.31;33.99;99030.41;6049579;28;97215;-60
2023/06/22 11:07:40;;;;;;;;;17.00;16.00;;;;;37.17;33.47;99030.34;6066802;28;96825;-60
2023/06/22 11:10:49;;;;;;;;;16.60;16.00;;;;;37.03;32.83;99027.47;6067223;28;96919;-60
2023/06/22 11:13:54;;;;;;;;;15.00;14.00;;;;;37.10;33.62;99035.94;6061757;28;98985;-60
2023/06/22 11:16:57;;;;;;;;;14.50;14.00;;;;;37.13;33.44;99019.09;6090696;28;96422;-60
2023/06/22 11:20:01;;;;;;;;;15.00;14.00;;;;;36.93;32.91;99014.97;6071288;28;96337;-60
2023/06/22 11:23:05;;;;;;;;;15.75;14.00;;;;;37.27;33.71;99015.53;6065011;28;96783;-60
2023/06/22 11:26:08;;;;;;;;;16.00;15.00;;;;;37.74;33.10;99020.91;6066342;28;96418;-60
2023/06/22 11:29:13;;;;;;;;;15.40;14.60;;;;;37.97;32.42;99023.34;6049113;28;99365;-60
2023/06/22 11:32:29;;;;;;;;;17.00;15.00;;;;;37.73;32.19;99015.66;6066399;28;96924;-60
2023/06/22 11:35:33;;;;;;;;;16.20;15.20;;;;;37.54;32.27;99010.41;6063928;28;96980;-60
2023/06/22 11:38:38;;;;;;;;;14.00;13.00;;;;;37.45;32.73;99012.75;6066462;28;96612;-60
2023/06/22 11:41:42;;;;;;;;;16.00;14.00;;;;;37.61;32.26;99007.63;6063940;28;96639;-60
2023/06/22 11:44:47;;;;;;;;;15.00;14.00;;;;;37.92;32.30;99011.69;6066471;28;97611;-60
2023/06/22 11:47:50;;;;;;;;;15.50;15.00;;;;;37.98;31.56;99004.41;6066446;28;96392;-60
2023/06/22 11:50:54;;;;;;;;;14.00;14.00;;;;;37.80;30.57;99004.41;6066413;28;96368;-60
2023/06/22 11:54:00;;;;;;;;;14.80;14.00;;;;;38.01;32.19;99009.28;6049010;28;96799;-60
2023/06/22 11:57:04;;;;;;;;;14.60;13.00;;;;;38.30;31.20;98999.63;6066236;28;96354;-60
2023/06/22 12:00:17;;;;;;;;;14.75;13.75;;;;;38.33;30.94;98993.19;6069082;28;96379;-60
2023/06/22 12:03:21;;;;;;;;;15.00;14.40;;;;;38.14;30.45;98993.59;6052652;28;96725;-60
2023/06/22 12:06:25;;;;;;;;;14.00;12.00;;;;;37.61;30.91;98985.09;6052931;28;97027;-60
2023/06/22 12:09:28;;;;;;;;;16.00;15.00;;;;;37.29;32.06;98987.81;6070053;28;97588;-60
2023/06/22 12:12:32;;;;;;;;;15.60;15.00;;;;;37.20;32.58;98987.38;6070217;28;96306;-60
2023/06/22 12:15:36;;;;;;;;;16.00;14.25;;;;;37.34;31.33;98992.28;6070024;28;97762;-60
2023/06/22 12:18:40;;;;;;;;;14.20;14.00;;;;;37.63;31.93;98986.31;6069833;28;96358;-60
2023/06/22 12:21:45;;;;;;;;;19.00;19.00;;;;;37.87;31.04;98984.75;6069686;28;96259;-60
2023/06/22 12:24:49;;;;;;;;;17.00;16.00;;;;;37.93;31.09;98982.31;6068750;28;96391;-60
2023/06/22 12:27:53;;;;;;;;;16.60;15.00;;;;;37.90;31.04;98989.56;6069263;28;96242;-62
2023/06/22 12:30:58;;;;;;;;;13.00;13.00;;;;;37.70;31.31;98989.13;6069083;28;97029;-60
2023/06/22 12:34:01;;;;;;;;;13.80;12.00;;;;;37.48;31.72;98979.03;6070009;28;96235;-60
2023/06/22 12:37:05;;;;;;;;;12.20;11.80;;;;;37.21;32.06;98969.31;6069590;28;96294;-60
2023/06/22 12:40:11;;;;;;;;;16.00;14.00;;;;;37.05;32.65;98969.63;6052349;28;96466;-60
2023/06/22 12:43:14;;;;;;;;;13.60;13.00;;;;;36.64;31.93;98963.47;6068425;28;96305;-60
2023/06/22 12:46:19;;;;;;;;;16.00;14.00;;;;;36.57;33.50;98963.38;6068142;28;96456;-60
2023/06/22 12:49:22;;;;;;;;;13.00;13.00;;;;;36.68;32.56;98953.03;6065438;28;96459;-60
2023/06/22 12:52:26;;;;;;;;;16.00;15.00;;;;;36.85;32.49;98955.09;6048875;28;99583;-60
2023/06/22 12:55:29;;;;;;;;;15.00;14.00;;;;;36.75;32.29;98949.47;6065660;28;97031;-60
2023/06/22 12:58:32;;;;;;;;;13.40;12.40;;;;;36.66;33.02;98943.38;6065928;28;96283;-60
2023/06/22 13:01:37;;;;;;;;;14.00;13.00;;;;;36.55;33.02;98946.13;6066802;28;97016;-61
2023/06/22 13:04:42;;;;;;;;;14.00;13.00;;;;;36.39;33.79;98949.25;6067513;28;96513;-60
2023/06/22 13:07:46;;;;;;;;;12.60;11.60;;;;;36.23;33.24;98937.50;6067081;28;96471;-60
2023/06/22 13:10:50;;;;;;;;;14.60;13.00;;;;;36.10;33.44;98939.00;6067086;28;96543;-60
2023/06/22 13:13:53;;;;;;;;;13.00;13.00;;;;;35.90;33.89;98930.03;6066027;28;96327;-61
2023/06/22 13:16:58;;;;;;;;;17.00;16.00;;;;;35.78;34.25;98933.13;6065839;28;97135;-60
2023/06/22 13:20:01;;;;;;;;;16.40;14.00;;;;;35.61;33.61;98930.97;6066112;28;96570;-61
2023/06/22 13:23:04;;;;;;;;;14.00;13.75;;;;;35.47;34.84;98930.84;6065625;28;96293;-60
2023/06/22 13:26:08;;;;;;;;;14.00;13.00;;;;;35.71;35.51;98929.47;6066593;28;97019;-60
2023/06/22 13:29:12;;;;;;;;;14.00;11.80;;;;;36.00;33.64;98934.94;6066759;28;97120;-60
2023/06/22 13:32:17;;;;;;;;;13.00;12.00;;;;;36.19;32.43;98916.22;6049471;28;96959;-60
2023/06/22 13:35:20;;;;;;;;;14.75;14.00;;;;;36.28;33.22;98919.50;6049494;28;96800;-60
2023/06/22 13:38:23;;;;;;;;;14.80;13.80;;;;;36.08;32.89;98924.53;6066890;28;96570;-60
2023/06/22 13:41:27;;;;;;;;;13.40;13.40;;;;;36.36;33.86;98923.97;6050211;28;96229;-60
2023/06/22 13:44:30;;;;;;;;;12.60;12.40;;;;;36.43;33.26;98916.38;6049946;28;96671;-60
2023/06/22 13:47:36;;;;;;;;;11.20;10.60;;;;;36.34;33.02;98918.72;6066627;28;96292;-60
2023/06/22 13:50:39;;;;;;;;;14.00;13.00;;;;;36.28;33.33;98909.06;6066502;28;97701;-60
2023/06/22 13:53:42;;;;;;;;;12.25;11.25;;;;;36.33;33.70;98916.31;6066100;28;97802;-60
2023/06/22 13:56:46;;;;;;;;;14.00;13.00;;;;;36.34;33.21;98917.94;6067931;28;96440;-60
2023/06/22 13:59:49;;;;;;;;;12.00;11.00;;;;;36.20;33.60;98921.47;6067224;28;96599;-60
2023/06/22 14:02:54;;;;;;;;;13.40;13.00;;;;;36.08;33.13;98885.25;6053276;28;96177;-60
2023/06/22 14:05:58;;;;;;;;;12.40;12.00;;;;;36.08;33.37;98912.50;6068439;28;96707;-60
2023/06/22 14:09:02;;;;;;;;;15.00;14.00;;;;;35.93;33.82;98911.59;6067492;28;97777;-60